Time;durP1;ratioP1;P1;durP2;ratioP2;P2;SDS_P1;SDS_P2;PMS_P1;PMS_P2;Temp;Humidity;BMP_temperature;BMP_pressure;BME280_temperature;BME280_humidity;BME280_pressure;Samples;Min_cycle;Max_cycle;Signal;HPM_P1;HPM_P2
2022/04/24 00:01:43;;;;;;;30.20;19.67;;;;;;;11.46;98.41;98969.41;4463529;32;35078;-80
2022/04/24 00:04:32;;;;;;;34.33;21.15;;;;;;;11.68;98.48;98965.53;4460136;32;34634;-79
2022/04/24 00:07:20;;;;;;;30.65;19.77;;;;;;;11.96;97.12;98963.09;4463520;32;35140;-80
2022/04/24 00:10:10;;;;;;;30.67;19.27;;;;;;;12.27;94.66;98967.34;4460218;32;35621;-80
2022/04/24 00:13:06;;;;;;;29.55;18.55;;;;;;;12.30;93.82;98961.16;4464825;32;34700;-80
2022/04/24 00:15:52;;;;;;;30.33;19.58;;;;;;;12.19;94.15;98963.53;4460022;32;34091;-80
2022/04/24 00:18:39;;;;;;;29.37;19.65;;;;;;;11.99;95.50;98962.41;4462545;32;33801;-79
2022/04/24 00:21:25;;;;;;;29.52;19.27;;;;;;;12.18;93.68;98955.59;4449828;32;35296;-79
2022/04/24 00:24:12;;;;;;;29.05;19.08;;;;;;;12.02;94.48;98942.53;4461351;32;34856;-79
2022/04/24 00:27:00;;;;;;;28.77;18.80;;;;;;;12.13;93.63;98940.97;4464508;32;34334;-80
2022/04/24 00:29:46;;;;;;;27.62;19.17;;;;;;;12.10;93.71;98930.66;4458156;32;34288;-79
2022/04/24 00:32:32;;;;;;;28.45;18.42;;;;;;;12.17;93.46;98923.81;4461417;32;35161;-79
2022/04/24 00:35:19;;;;;;;27.48;17.62;;;;;;;12.12;92.68;98913.81;4464917;32;35499;-79
2022/04/24 00:38:06;;;;;;;30.80;19.37;;;;;;;12.01;93.34;98918.97;4462830;32;35460;-79
2022/04/24 00:40:54;;;;;;;30.85;19.12;;;;;;;11.78;93.80;98915.75;4461731;32;34905;-79
2022/04/24 00:43:40;;;;;;;26.85;16.95;;;;;;;11.82;93.98;98929.59;4460692;32;34705;-79
2022/04/24 00:46:42;;;;;;;28.90;18.05;;;;;;;11.77;94.60;98929.81;4462384;32;34517;-79
2022/04/24 00:49:29;;;;;;;24.95;16.35;;;;;;;11.77;94.60;98929.81;4464206;32;34623;-79
2022/04/24 00:52:16;;;;;;;25.65;17.10;;;;;;;11.75;94.82;98926.59;4461696;32;33940;-79
2022/04/24 00:55:04;;;;;;;26.30;16.70;;;;;;;11.73;93.74;98918.69;4462727;32;34366;-79
2022/04/24 00:57:51;;;;;;;27.15;17.23;;;;;;;11.64;94.29;98929.75;4462792;32;35027;-79
2022/04/24 01:00:41;;;;;;;25.12;16.20;;;;;;;11.73;93.14;98937.12;4460354;32;34591;-80
2022/04/24 01:03:28;;;;;;;25.40;16.12;;;;;;;11.42;94.41;98938.31;4460102;32;34078;-80
2022/04/24 01:06:15;;;;;;;28.65;17.20;;;;;;;11.71;92.64;98938.22;4463941;32;34629;-80
2022/04/24 01:09:13;;;;;;;25.77;16.65;;;;;;;11.62;93.34;98940.25;4450511;32;35932;-79
2022/04/24 01:12:00;;;;;;;27.58;17.27;;;;;;;11.82;92.64;98924.09;4463742;32;34597;-79
2022/04/24 01:14:47;;;;;;;28.95;17.90;;;;;;;11.65;92.53;98939.56;4461773;32;34256;-79
2022/04/24 01:17:33;;;;;;;25.45;17.25;;;;;;;11.44;93.62;98933.28;4464416;32;34529;-79
2022/04/24 01:20:20;;;;;;;25.30;16.52;;;;;;;11.49;94.35;98920.16;4463028;32;34895;-79
2022/04/24 01:23:07;;;;;;;25.12;16.05;;;;;;;11.68;92.77;98911.47;4462802;32;34601;-79
2022/04/24 01:25:54;;;;;;;28.15;18.17;;;;;;;11.43;93.13;98921.50;4462909;32;34422;-80
2022/04/24 01:28:40;;;;;;;26.17;16.70;;;;;;;11.44;94.10;98922.28;4459116;32;33299;-79
2022/04/24 01:31:27;;;;;;;25.40;16.80;;;;;;;11.56;92.45;98925.13;4460086;32;36045;-79
2022/04/24 01:34:15;;;;;;;25.90;17.23;;;;;;;10.66;100.00;98909.88;4459393;32;35152;-79
2022/04/24 01:37:02;;;;;;;24.95;16.30;;;;;;;11.34;96.37;98909.78;4457985;32;34174;-80
2022/04/24 01:39:48;;;;;;;26.48;16.65;;;;;;;11.03;97.24;98907.41;4462067;32;35100;-79
2022/04/24 01:42:35;;;;;;;28.98;16.80;;;;;;;11.06;95.99;98895.78;4459964;32;36007;-79
2022/04/24 01:45:21;;;;;;;26.87;16.77;;;;;;;11.22;95.67;98899.56;4460913;32;35491;-79
2022/04/24 01:48:08;;;;;;;24.23;15.88;;;;;;;11.40;94.06;98899.44;4460560;32;34736;-79
2022/04/24 01:50:55;;;;;;;25.58;16.30;;;;;;;11.26;94.01;98899.69;4461501;32;34679;-79
2022/04/24 01:53:42;;;;;;;24.27;16.25;;;;;;;11.42;93.26;98899.91;4449889;32;34957;-79
2022/04/24 01:56:29;;;;;;;24.12;16.90;;;;;;;10.98;96.10;98881.00;4461049;32;35087;-79
2022/04/24 01:59:16;;;;;;;26.75;17.40;;;;;;;11.33;94.30;98910.16;4457582;32;35079;-79
2022/04/24 02:02:04;;;;;;;26.27;17.92;;;;;;;11.10;96.58;98894.00;4459610;32;33283;-79
2022/04/24 02:04:52;;;;;;;24.95;16.02;;;;;;;11.25;94.26;98904.37;4460731;32;34590;-79
2022/04/24 02:07:40;;;;;;;26.92;16.92;;;;;;;11.26;94.64;98900.47;4461822;32;34156;-80
2022/04/24 02:10:27;;;;;;;27.15;17.02;;;;;;;10.46;100.00;98907.84;4461557;32;34303;-79
2022/04/24 02:13:16;;;;;;;25.83;16.55;;;;;;;10.46;99.69;98899.62;4460007;32;33994;-79
2022/04/24 02:16:03;;;;;;;26.98;17.73;;;;;;;10.94;97.68;98898.44;4462974;32;34895;-79
2022/04/24 02:18:49;;;;;;;28.23;17.40;;;;;;;10.91;97.60;98899.12;4464763;32;34115;-80
2022/04/24 02:21:35;;;;;;;24.10;16.27;;;;;;;10.59;98.96;98893.16;4465181;32;33888;-79
2022/04/24 02:24:22;;;;;;;25.40;17.08;;;;;;;10.79;99.21;98895.13;4463280;32;33987;-80
2022/04/24 02:27:09;;;;;;;24.55;16.23;;;;;;;11.07;96.37;98894.66;4459505;32;35585;-79
2022/04/24 02:29:56;;;;;;;26.40;16.95;;;;;;;11.15;95.74;98893.78;4463245;32;33117;-79
2022/04/24 02:32:44;;;;;;;27.60;17.40;;;;;;;10.85;96.03;98889.47;4450485;32;33028;-79
2022/04/24 02:35:31;;;;;;;26.42;17.35;;;;;;;10.62;99.55;98887.00;4463466;32;35510;-79
2022/04/24 02:38:17;;;;;;;24.87;16.87;;;;;;;10.72;98.19;98888.56;4462707;32;36000;-80
2022/04/24 02:41:04;;;;;;;27.90;16.92;;;;;;;10.40;100.00;98881.78;4461698;32;34214;-79
2022/04/24 02:43:50;;;;;;;25.05;16.42;;;;;;;10.69;98.47;98900.19;4449666;32;34260;-79
2022/04/24 02:46:38;;;;;;;26.10;17.12;;;;;;;10.70;98.93;98888.91;4464289;32;33431;-80
2022/04/24 02:49:24;;;;;;;30.92;19.65;;;;;;;10.97;96.78;98886.81;4462232;32;35952;-79
2022/04/24 02:52:11;;;;;;;29.23;18.40;;;;;;;10.64;98.70;98879.25;4462226;32;34615;-79
2022/04/24 02:54:57;;;;;;;31.65;19.17;;;;;;;10.27;100.00;98883.59;4459709;32;33965;-79
2022/04/24 02:57:48;;;;;;;28.92;18.25;;;;;;;10.72;98.82;98886.63;4456702;32;34133;-79
2022/04/24 03:00:49;;;;;;;28.00;18.12;;;;;;;10.76;97.43;98871.16;4457750;32;36140;-79
2022/04/24 03:03:38;;;;;;;26.98;16.73;;;;;;;10.59;98.84;98879.44;4463480;32;34506;-79
2022/04/24 03:06:25;;;;;;;26.98;18.08;;;;;;;10.52;98.71;98876.41;4461402;32;33204;-79
2022/04/24 03:09:12;;;;;;;29.92;18.20;;;;;;;10.55;98.73;98881.22;4462590;32;34669;-78
2022/04/24 03:11:59;;;;;;;29.02;18.15;;;;;;;10.42;100.00;98877.59;4461550;32;34388;-78
2022/04/24 03:14:45;;;;;;;29.10;18.33;;;;;;;10.25;100.00;98867.47;4459627;32;34987;-79
2022/04/24 03:17:33;;;;;;;27.52;17.67;;;;;;;10.33;100.00;98861.19;4460179;32;34590;-79
2022/04/24 03:20:19;;;;;;;28.10;18.48;;;;;;;10.61;100.00;98860.72;4462430;32;34868;-78
2022/04/24 03:23:06;;;;;;;27.60;19.00;;;;;;;10.54;100.00;98860.47;4460660;32;34956;-79
2022/04/24 03:25:52;;;;;;;29.05;17.67;;;;;;;10.57;99.45;98855.13;4457449;32;34063;-79
2022/04/24 03:28:44;;;;;;;30.48;18.65;;;;;;;10.49;100.00;98846.94;4450145;32;34207;-78
2022/04/24 03:31:30;;;;;;;26.30;16.20;;;;;;;10.42;100.00;98849.41;4461164;32;35685;-79
2022/04/24 03:34:17;;;;;;;27.25;17.30;;;;;;;10.58;98.92;98843.00;4459899;32;35795;-79
2022/04/24 03:37:04;;;;;;;28.23;17.62;;;;;;;10.53;99.88;98829.53;4462619;32;35081;-79
2022/04/24 03:39:51;;;;;;;28.80;17.92;;;;;;;10.65;98.61;98834.28;4455990;32;34162;-79
2022/04/24 03:42:38;;;;;;;29.12;18.33;;;;;;;10.90;97.03;98842.66;4457398;32;34232;-78
2022/04/24 03:45:24;;;;;;;29.55;18.33;;;;;;;10.55;99.33;98831.91;4450370;32;34599;-79
2022/04/24 03:48:12;;;;;;;30.62;18.35;;;;;;;10.29;100.00;98835.59;4462943;32;34512;-79
2022/04/24 03:50:59;;;;;;;28.17;18.02;;;;;;;10.67;98.17;98840.25;4465122;32;33748;-79
2022/04/24 03:53:47;;;;;;;30.50;18.12;;;;;;;10.99;97.04;98846.19;4464109;32;34686;-79
2022/04/24 03:56:35;;;;;;;28.70;17.83;;;;;;;10.93;97.11;98847.47;4458854;32;35671;-79
2022/04/24 03:59:24;;;;;;;29.55;18.00;;;;;;;10.66;99.61;98841.38;4461421;32;35107;-79
2022/04/24 04:02:17;;;;;;;27.65;17.48;;;;;;;11.07;96.48;98842.59;4462161;32;34679;-79
2022/04/24 04:05:10;;;;;;;29.42;18.40;;;;;;;10.90;97.30;98829.78;4461724;32;34592;-80
2022/04/24 04:07:57;;;;;;;28.62;17.75;;;;;;;10.41;100.00;98831.34;4462320;32;36041;-79
2022/04/24 04:10:46;;;;;;;31.35;18.60;;;;;;;10.86;98.17;98830.78;4463925;32;34565;-79
2022/04/24 04:13:33;;;;;;;29.48;18.23;;;;;;;11.11;96.38;98842.72;4463838;32;34279;-79
2022/04/24 04:16:21;;;;;;;30.05;18.55;;;;;;;11.05;96.26;98850.31;4461498;32;35562;-79
2022/04/24 04:19:08;;;;;;;29.00;17.23;;;;;;;11.44;93.96;98840.84;4464642;32;34605;-80
2022/04/24 04:21:55;;;;;;;27.25;18.02;;;;;;;11.22;95.13;98844.72;4452861;32;35347;-79
2022/04/24 04:24:43;;;;;;;29.55;18.87;;;;;;;10.93;97.48;98842.84;4452495;32;35120;-79
2022/04/24 04:27:30;;;;;;;29.33;18.10;;;;;;;11.29;95.11;98837.88;4464170;32;34646;-78
2022/04/24 04:30:16;;;;;;;30.90;18.85;;;;;;;10.98;96.15;98839.88;4450288;32;33616;-79
2022/04/24 04:33:03;;;;;;;28.23;18.08;;;;;;;10.95;96.56;98846.03;4463237;32;35930;-79
2022/04/24 04:35:51;;;;;;;28.75;18.33;;;;;;;11.16;95.90;98835.09;4464624;32;34249;-78
2022/04/24 04:38:41;;;;;;;28.92;18.73;;;;;;;11.26;95.08;98840.16;4460744;32;33678;-79
2022/04/24 04:41:29;;;;;;;30.05;18.37;;;;;;;11.02;96.34;98848.25;4462730;32;35563;-79
2022/04/24 04:44:25;;;;;;;31.65;19.75;;;;;;;11.18;97.09;98862.16;4462397;32;34607;-80
2022/04/24 04:47:12;;;;;;;30.30;19.12;;;;;;;11.57;93.68;98844.41;4465194;32;33757;-79
2022/04/24 04:49:59;;;;;;;28.90;17.90;;;;;;;11.61;91.99;98844.53;4464242;32;35249;-79
2022/04/24 04:52:51;;;;;;;29.45;18.90;;;;;;;11.75;91.77;98839.56;4463118;32;33976;-79
2022/04/24 04:55:38;;;;;;;27.55;17.75;;;;;;;11.59;92.40;98836.66;4464068;32;35281;-80
2022/04/24 04:58:28;;;;;;;28.45;18.30;;;;;;;11.52;92.43;98833.66;4460656;32;35125;-79
2022/04/24 05:01:19;;;;;;;27.90;17.12;;;;;;;11.85;90.47;98827.37;4463885;32;34707;-79
2022/04/24 05:04:07;;;;;;;28.15;17.85;;;;;;;11.60;91.60;98832.75;4461424;32;34971;-79
2022/04/24 05:07:00;;;;;;;26.45;17.33;;;;;;;11.69;91.67;98836.22;4463384;32;34531;-79
2022/04/24 05:09:47;;;;;;;28.77;17.50;;;;;;;11.34;93.92;98827.53;4455649;32;201855;-80
2022/04/24 05:12:35;;;;;;;28.70;17.35;;;;;;;11.32;94.49;98831.72;4447628;32;35524;-79
2022/04/24 05:15:25;;;;;;;28.75;18.58;;;;;;;11.13;95.91;98818.50;4435705;32;36000;-79
2022/04/24 05:18:13;;;;;;;27.67;17.30;;;;;;;11.59;93.67;98819.41;4447713;32;34617;-80
2022/04/24 05:21:02;;;;;;;30.50;18.48;;;;;;;11.23;95.57;98818.88;4454216;32;35067;-80
2022/04/24 05:23:49;;;;;;;27.27;18.83;;;;;;;11.28;95.23;98820.63;4434585;32;35545;-79
2022/04/24 05:26:36;;;;;;;33.33;20.00;;;;;;;11.30;95.68;98823.84;4443045;32;36001;-80
2022/04/24 05:29:26;;;;;;;32.10;20.00;;;;;;;11.56;94.97;98825.56;4447450;32;35365;-80
2022/04/24 05:32:15;;;;;;;;;;;;;;;11.78;94.06;98813.38;4456070;32;34104;-79
2022/04/24 05:35:09;;;;;;;31.83;19.45;;;;;;;11.58;94.41;98804.84;4446374;32;35494;-79
2022/04/24 05:37:56;;;;;;;29.83;19.95;;;;;;;11.69;94.66;98813.47;4428589;32;34551;-79
2022/04/24 05:40:50;;;;;;;29.12;18.92;;;;;;;11.98;92.83;98814.50;4451635;32;34715;-79
2022/04/24 05:43:49;;;;;;;26.65;17.80;;;;;;;12.08;92.45;98825.03;4443666;32;33694;-79
2022/04/24 05:46:37;;;;;;;27.40;17.55;;;;;;;12.32;91.44;98838.81;4441679;32;34623;-79
2022/04/24 05:49:25;;;;;;;28.87;18.52;;;;;;;12.17;90.31;98844.16;4449959;32;34553;-79
2022/04/24 05:52:14;;;;;;;28.42;17.67;;;;;;;12.21;89.51;98834.09;4447234;32;34130;-79
2022/04/24 05:55:06;;;;;;;27.80;18.52;;;;;;;12.19;90.36;98828.94;4451154;32;34178;-79
2022/04/24 05:57:54;;;;;;;29.05;18.05;;;;;;;12.06;90.85;98828.13;4453167;32;35183;-79
2022/04/24 06:00:44;;;;;;;32.70;18.73;;;;;;;12.21;90.58;98823.94;4442210;32;36028;-79
2022/04/24 06:03:40;;;;;;;30.17;20.00;;;;;;;12.11;91.35;98825.16;4438787;32;34551;-79
2022/04/24 06:06:30;;;;;;;33.33;20.77;;;;;;;12.04;92.72;98824.94;4438231;32;34250;-79
2022/04/24 06:09:32;;;;;;;33.33;21.50;;;;;;;12.18;90.77;98829.28;4457842;32;34644;-79
2022/04/24 06:12:25;;;;;;;34.75;22.73;;;;;;;12.29;91.86;98831.22;4459781;32;34476;-79
2022/04/24 06:15:25;;;;;;;35.47;22.08;;;;;;;12.42;90.89;98829.31;4464645;32;35320;-80
2022/04/24 06:18:12;;;;;;;32.25;20.73;;;;;;;12.78;90.10;98824.97;4458208;32;34231;-79
2022/04/24 06:21:05;;;;;;;34.88;21.70;;;;;;;12.92;87.26;98814.41;4465416;32;35289;-79
2022/04/24 06:23:53;;;;;;;32.58;21.77;;;;;;;12.85;88.78;98821.63;4465326;32;34882;-79
2022/04/24 06:26:53;;;;;;;32.50;19.92;;;;;;;12.70;88.62;98826.69;4464916;32;34505;-79
2022/04/24 06:29:49;;;;;;;31.15;20.55;;;;;;;13.33;85.38;98820.75;4463096;32;35145;-79
2022/04/24 06:32:44;;;;;;;34.00;20.98;;;;;;;13.48;84.00;98824.69;4464028;32;35603;-79
2022/04/24 06:35:37;;;;;;;34.42;21.98;;;;;;;13.60;82.81;98824.63;4472090;32;34554;-79
2022/04/24 06:38:27;;;;;;;30.62;20.95;;;;;;;13.29;84.58;98822.59;4463652;32;35035;-79
2022/04/24 06:44:14;;;;;;;32.03;19.80;;;;;;;12.80;87.14;98817.94;4464426;32;34242;-79
2022/04/24 06:47:05;;;;;;;30.77;20.60;;;;;;;13.32;84.73;98810.91;4464874;32;35662;-78
2022/04/24 06:49:52;;;;;;;29.73;19.80;;;;;;;12.91;86.47;98801.78;4460598;32;33274;-79
2022/04/24 06:52:43;;;;;;;31.25;18.75;;;;;;;13.64;83.99;98799.97;4465451;32;34243;-79
2022/04/24 06:55:43;;;;;;;28.08;18.35;;;;;;;13.64;84.31;98795.28;4464901;32;34314;-79
2022/04/24 06:58:35;;;;;;;29.25;18.87;;;;;;;13.80;82.79;98792.53;4460423;32;34757;-80
2022/04/24 07:01:35;;;;;;;28.83;19.27;;;;;;;14.00;81.93;98798.16;4462803;32;34193;-79
2022/04/24 07:04:28;;;;;;;28.38;18.60;;;;;;;13.94;81.37;98797.63;4464604;32;34710;-80
2022/04/24 07:07:23;;;;;;;28.38;19.00;;;;;;;13.99;81.06;98800.12;4461067;32;34715;-79
2022/04/24 07:10:17;;;;;;;26.95;17.83;;;;;;;14.23;78.94;98803.84;4463859;32;35970;-79
2022/04/24 07:13:16;;;;;;;25.10;16.75;;;;;;;14.55;78.88;98799.16;4425190;32;34136;-78
2022/04/24 07:16:10;;;;;;;28.02;17.90;;;;;;;14.73;77.52;98794.84;4441571;32;34045;-78
2022/04/24 07:19:03;;;;;;;28.70;17.33;;;;;;;14.95;77.06;98795.34;4434035;32;34670;-79
2022/04/24 07:21:53;;;;;;;26.05;17.35;;;;;;;14.66;77.94;98788.38;4431195;32;34469;-79
2022/04/24 07:24:42;;;;;;;24.52;15.50;;;;;;;14.99;77.75;98785.97;4434111;32;33577;-79
2022/04/24 07:27:41;;;;;;;24.15;16.17;;;;;;;15.29;74.93;98783.47;4436074;32;33825;-79
2022/04/24 07:33:44;;;;;;;24.80;15.90;;;;;;;15.89;72.67;98769.25;4442819;32;34871;-78
2022/04/24 07:36:40;;;;;;;26.70;17.27;;;;;;;16.06;72.38;98767.16;4448055;32;34660;-79
2022/04/24 07:39:33;;;;;;;23.38;15.82;;;;;;;15.50;73.35;98771.25;4436076;32;33737;-78
2022/04/24 07:42:20;;;;;;;26.60;17.48;;;;;;;15.71;71.62;98779.19;4446515;32;34635;-79
2022/04/24 07:45:11;;;;;;;25.90;16.75;;;;;;;15.61;72.46;98768.69;4444702;32;35791;-79
2022/04/24 07:48:01;;;;;;;26.48;16.77;;;;;;;15.76;73.31;98776.09;4435875;32;35369;-78
2022/04/24 07:50:54;;;;;;;26.87;16.83;;;;;;;16.12;71.44;98773.97;4448595;32;33862;-79
2022/04/24 07:53:44;;;;;;;25.75;16.27;;;;;;;16.39;69.80;98783.91;4441663;32;34118;-79
2022/04/24 07:56:34;;;;;;;24.98;16.23;;;;;;;16.21;70.31;98782.81;4449003;32;36041;-78
2022/04/24 07:59:23;;;;;;;25.65;17.70;;;;;;;16.32;70.37;98789.31;4448758;32;34109;-78
2022/04/24 08:02:15;;;;;;;25.95;16.25;;;;;;;16.22;70.31;98778.88;4424781;32;33606;-80
2022/04/24 08:05:06;;;;;;;25.02;15.73;;;;;;;16.24;71.12;98781.28;4434593;32;34541;-78
2022/04/24 08:10:58;;;;;;;25.10;16.20;;;;;;;16.91;68.25;98753.88;4440219;31;34540;-77
2022/04/24 08:13:48;;;;;;;24.05;15.07;;;;;;;17.03;66.20;98761.94;4465908;31;34143;-78
2022/04/24 08:16:43;;;;;;;23.33;14.57;;;;;;;16.59;66.83;98764.44;4467164;32;34564;-78
2022/04/24 08:22:45;;;;;;;20.90;13.60;;;;;;;17.13;65.57;98740.31;4469396;31;34243;-79
2022/04/24 08:25:37;;;;;;;21.23;12.93;;;;;;;17.07;63.60;98743.41;4476782;31;33793;-78
2022/04/24 08:28:28;;;;;;;20.88;13.30;;;;;;;17.48;64.00;98732.41;4471753;31;35506;-78
2022/04/24 08:31:22;;;;;;;20.25;12.60;;;;;;;17.11;63.60;98734.38;4477333;31;34968;-78
2022/04/24 08:37:17;;;;;;;19.00;12.27;;;;;;;17.86;60.37;98733.22;4472761;31;33803;-78
2022/04/24 08:40:16;;;;;;;21.37;13.32;;;;;;;17.86;61.08;98736.00;4478361;31;34535;-78
2022/04/24 08:43:05;;;;;;;22.60;14.85;;;;;;;18.21;60.05;98718.06;4449842;31;35627;-78
2022/04/24 08:45:53;;;;;;;20.37;14.07;;;;;;;18.50;60.25;98718.25;4474327;31;35926;-78
2022/04/24 08:48:45;;;;;;;21.52;13.45;;;;;;;18.54;60.60;98713.53;4466886;32;33798;-78
2022/04/24 08:51:34;;;;;;;22.37;13.40;;;;;;;18.49;59.37;98711.13;4459111;31;34557;-78
2022/04/24 08:54:42;;;;;;;17.90;11.93;;;;;;;18.74;60.26;98711.31;4468332;32;35069;-78
2022/04/24 09:00:29;;;;;;;16.12;10.38;;;;;;;18.60;56.22;98698.91;4465780;32;33742;-78
2022/04/24 09:03:23;;;;;;;17.12;10.40;;;;;;;18.78;57.57;98695.47;4475490;31;35346;-79
2022/04/24 09:06:25;;;;;;;10.95;6.20;;;;;;;19.19;56.94;98700.81;4460502;32;33967;-76
2022/04/24 09:09:13;;;;;;;9.13;5.30;;;;;;;19.30;52.48;98696.09;4464994;32;34628;-79
2022/04/24 09:12:08;;;;;;;9.20;4.40;;;;;;;19.33;51.78;98689.75;4453486;32;33591;-78
2022/04/24 09:15:04;;;;;;;9.38;5.37;;;;;;;18.88;53.89;98689.97;4434378;32;34594;-80
2022/04/24 09:18:02;;;;;;;8.27;4.00;;;;;;;18.92;52.76;98689.97;4423587;32;34341;-80
2022/04/24 09:21:06;;;;;;;4.22;2.47;;;;;;;18.87;51.23;98670.94;4436263;32;34854;-78
2022/04/24 09:24:00;;;;;;;5.28;2.08;;;;;;;18.69;48.98;98692.22;4435645;32;34110;-78
2022/04/24 09:26:56;;;;;;;5.53;1.85;;;;;;;18.24;48.75;98686.78;4441555;32;34186;-79
2022/04/24 09:29:51;;;;;;;5.40;1.90;;;;;;;18.32;49.77;98702.31;4443087;32;35609;-80
2022/04/24 09:32:50;;;;;;;4.75;2.35;;;;;;;18.14;50.23;98684.75;4430551;32;34527;-78
2022/04/24 09:35:57;;;;;;;5.78;1.70;;;;;;;18.80;49.58;98682.00;4421812;32;32732;-79
2022/04/24 09:39:02;;;;;;;5.78;1.87;;;;;;;19.04;49.57;98691.63;4429094;32;36915;-82
2022/04/24 09:42:06;;;;;;;3.33;1.87;;;;;;;18.64;49.11;98679.50;4435731;32;35973;-79
2022/04/24 09:44:54;;;;;;;4.12;2.20;;;;;;;19.12;49.18;98681.34;4433646;32;34160;-78
2022/04/24 09:48:26;;;;;;;3.72;1.12;;;;;;;19.71;48.80;98690.25;4448040;32;34068;-77
2022/04/24 09:51:16;;;;;;;2.47;0.70;;;;;;;18.97;48.21;98686.06;4445874;32;34729;-78
2022/04/24 09:54:07;;;;;;;2.90;0.70;;;;;;;19.02;44.99;98694.78;4437144;32;33706;-78
2022/04/24 09:56:58;;;;;;;2.90;0.90;;;;;;;18.71;44.92;98684.31;4436459;32;35514;-77
2022/04/24 09:59:51;;;;;;;2.15;0.65;;;;;;;18.61;45.55;98685.84;4435193;32;34412;-79
2022/04/24 10:02:42;;;;;;;3.47;0.85;;;;;;;18.57;45.65;98698.91;4447471;32;34582;-78
2022/04/24 10:05:32;;;;;;;2.33;1.10;;;;;;;18.26;46.28;98708.59;4437120;32;35012;-79
2022/04/24 10:08:21;;;;;;;2.90;0.62;;;;;;;18.17;46.94;98708.94;4449966;32;33457;-80
2022/04/24 10:11:14;;;;;;;2.60;0.70;;;;;;;18.20;46.12;98710.94;4449971;32;35002;-78
2022/04/24 10:17:38;;;;;;;5.03;0.93;;;;;;;18.13;46.43;98719.19;4453459;32;35116;-78
2022/04/24 10:21:03;;;;;;;4.37;0.80;;;;;;;17.76;48.22;98720.03;4452657;32;33147;-80
2022/04/24 10:24:18;;;;;;;6.00;0.70;;;;;;;17.58;48.82;98725.38;4458058;32;33570;-78
2022/04/24 10:27:07;;;;;;;2.78;0.80;;;;;;;17.37;49.94;98719.63;4450904;32;34645;-78
2022/04/24 10:30:00;;;;;;;5.80;0.80;;;;;;;17.42;51.01;98720.09;4443568;32;34948;-78
2022/04/24 10:36:25;;;;;;;6.15;1.17;;;;;;;16.96;51.92;98734.19;4451315;32;34097;-78
2022/04/24 10:39:33;;;;;;;3.00;0.70;;;;;;;17.33;51.63;98738.16;4448778;32;34197;-77
2022/04/24 10:42:38;;;;;;;3.42;0.77;;;;;;;17.19;52.41;98736.84;4448124;32;34559;-77
2022/04/24 10:45:50;;;;;;;3.92;0.70;;;;;;;17.00;51.69;98721.19;4463238;32;34573;-76
2022/04/24 10:48:48;;;;;;;4.30;0.90;;;;;;;17.11;51.46;98709.47;4458500;32;34598;-77
2022/04/24 10:51:37;;;;;;;3.53;0.80;;;;;;;17.05;53.14;98704.25;4439736;32;34163;-76
2022/04/24 11:53:56;;;;;;;3.58;1.70;;;;;;;17.86;54.28;98724.91;4414542;32;34791;-85
2022/04/24 11:56:53;;;;;;;5.55;1.90;;;;;;;18.10;54.60;98717.19;4413821;32;33341;-85
2022/04/24 11:59:57;;;;;;;4.47;1.77;;;;;;;18.50;54.47;98693.28;4410458;32;34846;-84
2022/04/24 12:02:51;;;;;;;4.87;1.10;;;;;;;18.69;52.53;98706.88;4411043;32;35505;-84
2022/04/24 12:05:59;;;;;;;2.87;1.45;;;;;;;18.54;52.26;98708.78;4422358;32;35027;-84
2022/04/24 12:12:07;;;;;;;4.60;1.50;;;;;;;18.31;53.44;98697.16;4412888;32;34042;-83
2022/04/24 12:14:56;;;;;;;2.37;1.25;;;;;;;18.66;52.95;98671.59;4412854;32;34643;-83
2022/04/24 12:17:59;;;;;;;4.12;1.58;;;;;;;18.77;52.42;98678.03;4422107;32;34985;-83
2022/04/24 12:20:52;;;;;;;4.70;1.65;;;;;;;19.27;51.97;98669.91;4412860;32;34530;-85
2022/04/24 12:23:49;;;;;;;4.80;1.73;;;;;;;20.07;50.42;98657.69;4420810;32;34830;-85
2022/04/24 12:26:47;;;;;;;5.87;1.87;;;;;;;19.66;50.64;98671.97;4408113;32;35475;-81
2022/04/24 12:29:48;;;;;;;5.10;1.95;;;;;;;19.64;50.93;98674.34;4422635;32;35348;-85
2022/04/24 12:36:15;;;;;;;4.00;1.70;;;;;;;20.15;49.27;98681.53;4413871;32;33934;-85
2022/04/24 12:39:06;;;;;;;2.15;1.20;;;;;;;19.73;48.80;98682.31;4413385;32;34647;-80
2022/04/24 12:42:16;;;;;;;5.18;1.33;;;;;;;18.87;48.84;98682.84;4401727;32;34918;-83
2022/04/24 12:45:09;;;;;;;5.50;1.73;;;;;;;18.48;51.54;98668.75;4400822;32;34529;-84
2022/04/24 12:48:10;;;;;;;3.10;1.40;;;;;;;18.38;52.30;98650.84;4412558;32;34400;-82
2022/04/24 12:51:07;;;;;;;5.12;1.73;;;;;;;18.41;51.47;98655.62;4414003;32;35310;-85
2022/04/24 12:54:03;;;;;;;3.50;1.50;;;;;;;18.73;51.25;98648.66;4412208;32;34941;-82
2022/04/24 12:57:16;;;;;;;4.75;1.75;;;;;;;18.25;51.52;98668.19;4401584;32;33516;-84
2022/04/24 13:00:15;;;;;;;4.70;1.80;;;;;;;18.28;52.45;98662.69;4403096;32;34932;-82
2022/04/24 13:03:12;;;;;;;6.18;1.70;;;;;;;18.36;52.92;98660.75;4412838;32;35322;-82
2022/04/24 13:09:16;;;;;;;3.35;1.55;;;;;;;18.72;51.58;98661.72;4410136;32;34250;-83
2022/04/24 13:12:16;;;;;;;6.97;1.85;;;;;;;18.73;51.38;98665.31;4409854;32;34957;-82
2022/04/24 13:15:11;;;;;;;4.93;2.08;;;;;;;18.54;52.44;98653.31;4410065;32;36031;-83
2022/04/24 13:18:23;;;;;;;3.62;1.50;;;;;;;18.35;53.87;98656.38;4411798;32;34877;-85
2022/04/24 13:21:23;;;;;;;3.75;1.92;;;;;;;18.79;53.12;98641.56;4409027;32;34517;-84
2022/04/24 13:24:25;;;;;;;4.65;1.25;;;;;;;18.14;54.85;98649.50;4411731;32;34218;-82
2022/04/24 13:27:20;;;;;;;4.12;2.00;;;;;;;17.10;56.89;98647.75;4414348;32;34748;-84
2022/04/24 13:30:25;;;;;;;3.70;1.48;;;;;;;17.21;60.80;98650.63;4402506;32;34953;-82
2022/04/24 13:33:17;;;;;;;;;;;;;;;16.72;64.13;98638.59;4409952;32;35376;-82
2022/04/24 13:36:11;;;;;;;6.97;2.03;;;;;;;15.98;70.11;98658.50;4395932;32;35524;-82
2022/04/24 13:39:05;;;;;;;10.13;1.65;;;;;;;15.77;72.60;98658.94;4411119;32;34680;-82
2022/04/24 13:48:34;;;;;;;6.60;2.45;;;;;;;15.39;72.35;98604.63;4406889;32;33704;-79
2022/04/24 13:51:31;;;;;;;6.25;2.20;;;;;;;15.14;79.15;98624.31;4402723;32;34398;-81
2022/04/24 13:57:26;;;;;;;6.40;1.80;;;;;;;15.08;79.92;98636.78;4403516;32;35530;-84
2022/04/24 14:00:24;;;;;;;5.10;1.92;;;;;;;14.99;79.23;98630.69;4397657;32;35070;-85
2022/04/24 14:03:18;;;;;;;;;;;;;;;15.29;78.89;98634.44;4393040;32;34367;-85
2022/04/24 14:06:11;;;;;;;4.40;1.70;;;;;;;16.05;80.80;98619.94;4400542;32;36763;-85
2022/04/24 14:09:11;;;;;;;6.97;2.40;;;;;;;16.26;72.32;98624.16;4411276;32;34538;-84
2022/04/24 14:12:00;;;;;;;4.18;1.40;;;;;;;16.95;79.95;98623.88;4409307;32;34203;-85
2022/04/24 14:15:12;;;;;;;5.60;1.37;;;;;;;16.91;72.45;98604.47;4405547;32;35520;-84
2022/04/24 14:18:10;;;;;;;4.15;1.25;;;;;;;17.56;69.64;98607.84;4410939;32;34647;-86
2022/04/24 14:21:12;;;;;;;4.25;1.52;;;;;;;18.01;60.48;98603.09;4408891;32;35456;-87
2022/04/24 14:24:08;;;;;;;4.65;1.40;;;;;;;19.11;60.34;98608.38;4398559;32;32737;-87
2022/04/24 14:27:05;;;;;;;4.63;1.50;;;;;;;18.85;57.43;98618.59;4397452;32;34257;-87
2022/04/24 14:30:10;;;;;;;5.55;2.20;;;;;;;18.98;61.61;98616.28;4397672;32;34374;-86
2022/04/24 14:33:14;;;;;;;4.55;2.00;;;;;;;19.79;54.22;98604.88;4412182;32;34348;-85
2022/04/24 14:36:11;;;;;;;5.87;1.42;;;;;;;20.20;52.97;98592.09;4406608;32;34168;-84
2022/04/24 14:39:10;;;;;;;4.25;1.50;;;;;;;20.58;52.56;98598.00;4409402;32;34612;-85
2022/04/24 14:58:02;;;;;;;3.12;1.08;;;;;;;20.55;49.70;98596.03;4409554;32;34816;-82
2022/04/24 15:00:56;;;;;;;2.95;1.10;;;;;;;20.54;48.60;98588.84;4401674;32;35032;-82
2022/04/24 15:03:44;;;;;;;4.47;1.10;;;;;;;20.26;52.56;98580.56;4411646;32;34337;-83
2022/04/24 15:06:45;;;;;;;5.05;1.55;;;;;;;19.98;55.95;98587.81;4409622;32;35047;-84
2022/04/24 15:09:42;;;;;;;4.18;1.23;;;;;;;20.08;53.64;98570.28;4411087;32;34538;-82
2022/04/24 15:12:43;;;;;;;6.65;1.17;;;;;;;20.51;51.16;98564.59;4417917;32;35077;-83
2022/04/24 15:15:43;;;;;;;3.97;1.10;;;;;;;19.07;51.98;98557.59;4408394;32;34723;-85
2022/04/24 15:18:42;;;;;;;1.60;0.80;;;;;;;19.50;53.92;98550.09;4411901;32;36660;-83